createdAt,value
2022-12-08T00:01:05.142Z,98883.72
2022-12-08T00:03:32.067Z,98884.91
2022-12-08T00:06:17.527Z,98860.72
2022-12-08T00:09:02.904Z,98879.09
2022-12-08T00:11:29.747Z,98865.66
2022-12-08T00:13:56.449Z,98852.19
2022-12-08T00:16:23.346Z,98862.00
2022-12-08T00:18:50.425Z,98875.84
2022-12-08T00:21:17.224Z,98873.66
2022-12-08T00:23:44.098Z,98853.13
2022-12-08T00:26:10.803Z,98850.47
2022-12-08T00:28:37.729Z,98858.84
2022-12-08T00:31:09.272Z,98858.53
2022-12-08T00:33:36.380Z,98845.41
2022-12-08T00:36:10.391Z,98841.94
2022-12-08T00:38:38.087Z,98821.41
2022-12-08T00:41:09.031Z,98821.44
2022-12-08T00:43:35.860Z,98801.16
2022-12-08T00:46:02.616Z,98818.44
2022-12-08T00:48:29.442Z,98806.94
2022-12-08T00:50:56.435Z,98807.28
2022-12-08T00:53:23.356Z,98801.84
2022-12-08T00:55:51.365Z,98792.31
2022-12-08T00:58:18.127Z,98768.97
2022-12-08T01:00:44.880Z,98764.34
2022-12-08T01:03:12.595Z,98747.59
2022-12-08T01:05:39.911Z,98748.88
2022-12-08T01:08:08.003Z,98745.09
2022-12-08T01:10:38.497Z,98754.31
2022-12-08T01:13:05.772Z,98751.53
2022-12-08T01:15:32.447Z,98726.19
2022-12-08T01:17:59.169Z,98723.41
2022-12-08T01:20:26.078Z,98724.34
2022-12-08T01:22:52.790Z,98703.31
2022-12-08T01:25:19.481Z,98708.59
2022-12-08T01:27:46.318Z,98691.63
2022-12-08T01:30:13.572Z,98693.25
2022-12-08T01:32:40.347Z,98702.00
2022-12-08T01:35:07.356Z,98692.13
2022-12-08T01:37:34.023Z,98689.78
2022-12-08T01:40:00.741Z,98671.88
2022-12-08T01:42:27.635Z,98688.81
2022-12-08T01:45:03.049Z,98670.69
2022-12-08T01:47:42.966Z,98681.41
2022-12-08T01:50:13.206Z,98688.72
2022-12-08T01:52:50.549Z,98687.94
2022-12-08T01:55:23.119Z,98689.44
2022-12-08T01:57:53.692Z,98699.63
2022-12-08T02:00:21.841Z,98698.97
2022-12-08T02:02:59.675Z,98675.63
2022-12-08T02:05:33.872Z,98690.44
2022-12-08T02:08:06.967Z,98686.31
2022-12-08T02:10:37.257Z,98685.97
2022-12-08T02:13:04.719Z,98677.13
2022-12-08T02:16:10.420Z,98665.13
2022-12-08T02:19:30.275Z,98651.34
2022-12-08T02:22:15.082Z,98623.75
2022-12-08T02:25:10.130Z,98648.38
2022-12-08T02:27:58.721Z,98588.88
2022-12-08T02:30:45.758Z,98572.44
2022-12-08T02:33:50.125Z,98525.13
2022-12-08T02:36:26.304Z,98431.78
2022-12-08T02:39:25.483Z,98506.00
2022-12-08T02:42:19.286Z,98456.66
2022-12-08T02:44:57.621Z,98468.47
2022-12-08T02:47:26.522Z,98483.78
2022-12-08T02:49:55.849Z,98489.69
2022-12-08T02:52:23.871Z,98493.47
2022-12-08T02:54:55.205Z,98495.56
2022-12-08T02:57:58.919Z,98486.72
2022-12-08T03:00:29.936Z,98474.81
2022-12-08T03:02:59.512Z,98483.56
2022-12-08T03:05:32.186Z,98472.84
2022-12-08T03:08:29.161Z,98476.09
2022-12-08T03:11:05.012Z,98474.84
2022-12-08T03:13:53.207Z,98476.97
2022-12-08T03:16:25.688Z,98487.63
2022-12-08T03:19:21.077Z,98476.44
2022-12-08T03:21:52.651Z,98486.81
2022-12-08T03:24:22.171Z,98498.50
2022-12-08T03:26:57.846Z,98500.09
2022-12-08T03:29:25.101Z,98484.88
2022-12-08T03:31:57.744Z,98500.44
2022-12-08T03:34:28.674Z,98491.84
2022-12-08T03:36:55.689Z,98479.00
2022-12-08T03:39:22.406Z,98488.84
2022-12-08T03:41:49.211Z,98483.25
2022-12-08T03:44:15.914Z,98482.91
2022-12-08T03:46:42.610Z,98478.59
2022-12-08T03:49:09.388Z,98456.72
2022-12-08T03:51:36.384Z,98462.91
2022-12-08T03:54:03.852Z,98468.19
2022-12-08T03:56:34.084Z,98464.69
2022-12-08T03:59:01.133Z,98463.47
2022-12-08T04:01:28.393Z,98459.56
2022-12-08T04:03:55.224Z,98462.84
2022-12-08T04:06:22.637Z,98464.28
2022-12-08T04:08:50.386Z,98467.53
2022-12-08T04:11:17.987Z,98463.88
2022-12-08T04:13:45.563Z,98466.66
2022-12-08T04:16:25.357Z,98470.66
2022-12-08T04:18:52.709Z,98479.69
2022-12-08T04:21:19.749Z,98479.28
2022-12-08T04:23:47.316Z,98484.72
2022-12-08T04:26:14.608Z,98483.28
2022-12-08T04:28:41.344Z,98488.66
2022-12-08T04:31:08.182Z,98483.91
2022-12-08T04:33:35.475Z,98482.63
2022-12-08T04:36:03.564Z,98481.25
2022-12-08T04:38:30.604Z,98488.50
2022-12-08T04:40:57.501Z,98478.94
2022-12-08T04:43:24.191Z,98472.03
2022-12-08T04:45:50.986Z,98459.66
2022-12-08T04:48:17.873Z,98474.22
2022-12-08T04:50:45.896Z,98465.13
2022-12-08T04:53:13.932Z,98485.09
2022-12-08T04:55:44.928Z,98474.69
2022-12-08T04:58:16.980Z,98481.75
2022-12-08T05:00:44.524Z,98475.44
2022-12-08T05:03:11.738Z,98480.38
2022-12-08T05:05:38.585Z,98472.47
2022-12-08T05:08:05.981Z,98481.34
2022-12-08T05:10:33.070Z,98472.56
2022-12-08T05:13:00.460Z,98464.97
2022-12-08T05:15:27.366Z,98459.25
2022-12-08T05:17:54.066Z,98453.09
2022-12-08T05:20:20.945Z,98476.06
2022-12-08T05:22:47.646Z,98464.44
2022-12-08T05:25:15.021Z,98465.25
2022-12-08T05:27:42.248Z,98471.91
2022-12-08T05:30:09.097Z,98467.50
2022-12-08T05:32:35.844Z,98462.34
2022-12-08T05:35:02.735Z,98454.22
2022-12-08T05:37:29.496Z,98450.97
2022-12-08T05:39:56.190Z,98455.91
2022-12-08T05:42:25.001Z,98440.03
2022-12-08T05:44:52.225Z,98418.41
2022-12-08T05:47:19.012Z,98399.63
2022-12-08T05:49:45.728Z,98415.72
2022-12-08T05:52:12.578Z,98414.34
2022-12-08T05:54:39.280Z,98420.28
2022-12-08T05:57:06.012Z,98389.59
2022-12-08T05:59:32.958Z,98379.47
2022-12-08T06:01:59.755Z,98391.72
2022-12-08T06:04:26.532Z,98386.94
2022-12-08T06:06:53.328Z,98390.91
2022-12-08T06:09:20.155Z,98407.47
2022-12-08T06:11:47.434Z,98402.34
2022-12-08T06:14:14.413Z,98412.06
2022-12-08T06:16:41.538Z,98413.56
2022-12-08T06:19:08.553Z,98412.16
2022-12-08T06:21:35.553Z,98422.06
2022-12-08T06:24:02.251Z,98427.44
2022-12-08T06:26:29.096Z,98424.31
2022-12-08T06:28:55.867Z,98420.09
2022-12-08T06:31:24.938Z,98437.50
2022-12-08T06:33:53.418Z,98430.16
2022-12-08T06:36:22.923Z,98438.91
2022-12-08T06:38:49.925Z,98432.22
2022-12-08T06:41:17.143Z,98436.94
2022-12-08T06:43:44.358Z,98444.16
2022-12-08T06:46:15.742Z,98430.84
2022-12-08T06:48:43.063Z,98439.72
2022-12-08T06:51:14.993Z,98445.16
2022-12-08T06:53:43.040Z,98443.84
2022-12-08T06:56:10.914Z,98442.28
2022-12-08T06:58:38.157Z,98443.78
2022-12-08T07:01:09.448Z,98444.97
2022-12-08T07:03:37.472Z,98432.69
2022-12-08T07:06:04.995Z,98451.72
2022-12-08T07:08:33.366Z,98434.81
2022-12-08T07:11:00.216Z,98447.88
2022-12-08T07:13:26.927Z,98452.66
2022-12-08T07:15:53.879Z,98437.75
2022-12-08T07:18:20.800Z,98437.31
2022-12-08T07:20:47.515Z,98438.25
2022-12-08T07:23:15.016Z,98428.50
2022-12-08T07:25:41.717Z,98436.00
2022-12-08T07:28:12.503Z,98445.34
2022-12-08T07:30:39.964Z,98441.13
2022-12-08T07:33:06.765Z,98430.41
2022-12-08T07:35:35.051Z,98439.72
2022-12-08T07:38:02.616Z,98423.88
2022-12-08T07:40:29.485Z,98443.34
2022-12-08T07:42:56.223Z,98446.63
2022-12-08T07:45:28.307Z,98438.13
2022-12-08T07:47:58.079Z,98443.63
2022-12-08T07:50:24.956Z,98444.06
2022-12-08T07:52:51.645Z,98446.06
2022-12-08T07:55:18.318Z,98445.38
2022-12-08T07:57:45.073Z,98436.97
2022-12-08T08:00:12.428Z,98437.31
2022-12-08T08:02:39.917Z,98445.59
2022-12-08T08:05:07.370Z,98434.63
2022-12-08T08:07:34.587Z,98449.81
2022-12-08T08:10:01.390Z,98410.06
2022-12-08T08:12:32.589Z,98432.03
2022-12-08T08:15:04.857Z,98436.38
2022-12-08T08:17:32.497Z,98442.78
2022-12-08T08:20:00.627Z,98448.19
2022-12-08T08:22:27.775Z,98445.38
2022-12-08T08:24:54.815Z,98446.75
2022-12-08T08:27:21.544Z,98458.44
2022-12-08T08:29:48.248Z,98452.41
2022-12-08T08:32:15.092Z,98446.44
2022-12-08T08:34:41.824Z,98458.44
2022-12-08T08:37:08.554Z,98450.41
2022-12-08T08:39:36.201Z,98458.00
2022-12-08T08:42:03.103Z,98459.53
2022-12-08T08:44:29.899Z,98442.81
2022-12-08T08:46:56.739Z,98461.28
2022-12-08T08:49:23.469Z,98459.06
2022-12-08T08:51:50.406Z,98458.28
2022-12-08T08:54:17.218Z,98447.78
2022-12-08T08:56:44.002Z,98448.19
2022-12-08T08:59:11.237Z,98450.69
2022-12-08T09:01:38.275Z,98461.44
2022-12-08T09:04:05.146Z,98461.88
2022-12-08T09:06:32.387Z,98462.19
2022-12-08T09:08:59.401Z,98459.97
2022-12-08T09:11:26.300Z,98452.56
2022-12-08T09:13:54.889Z,98442.78
2022-12-08T09:16:22.820Z,98445.75
2022-12-08T09:18:50.105Z,98453.31
2022-12-08T09:21:23.227Z,98437.94
2022-12-08T09:23:50.944Z,98451.88
2022-12-08T09:26:17.646Z,98469.78
2022-12-08T09:28:46.810Z,98458.72
2022-12-08T09:31:14.529Z,98460.94
2022-12-08T09:33:41.655Z,98475.34
2022-12-08T09:36:09.081Z,98479.69
2022-12-08T09:38:36.635Z,98484.59
2022-12-08T09:41:14.492Z,98491.72
2022-12-08T09:44:07.414Z,98504.44
2022-12-08T09:46:35.835Z,98507.16
2022-12-08T09:49:05.128Z,98492.75
2022-12-08T09:51:38.330Z,98504.44
2022-12-08T09:54:21.736Z,98508.44
2022-12-08T09:56:52.270Z,98507.47
2022-12-08T09:59:34.575Z,98509.91
2022-12-08T10:02:03.733Z,98506.97
2022-12-08T10:04:38.741Z,98510.59
2022-12-08T10:07:40.761Z,98511.41
2022-12-08T10:10:34.128Z,98506.00
2022-12-08T10:13:07.375Z,98488.72
2022-12-08T10:15:48.398Z,98488.09
2022-12-08T10:18:18.564Z,98507.50
2022-12-08T10:20:47.516Z,98506.97
2022-12-08T10:23:35.144Z,98517.13
2022-12-08T10:26:12.442Z,98509.75
2022-12-08T10:28:44.661Z,98515.38
2022-12-08T10:31:21.186Z,98497.25
2022-12-08T10:34:01.116Z,98494.25
2022-12-08T10:37:00.772Z,98491.81
2022-12-08T10:39:46.988Z,98456.94
2022-12-08T10:42:22.118Z,98478.00
2022-12-08T10:44:58.130Z,98476.28
2022-12-08T10:47:27.531Z,98468.53
2022-12-08T10:50:19.590Z,98482.56
2022-12-08T10:52:58.220Z,98480.84
2022-12-08T10:55:25.168Z,98487.72
2022-12-08T10:57:52.150Z,98488.41
2022-12-08T11:00:26.590Z,98486.66
2022-12-08T11:03:04.549Z,98498.91
2022-12-08T11:05:35.436Z,98482.75
2022-12-08T11:08:04.413Z,98500.72
2022-12-08T11:10:35.720Z,98503.06
2022-12-08T11:13:06.513Z,98504.63
2022-12-08T11:15:39.655Z,98485.78
2022-12-08T11:18:21.018Z,98486.59
2022-12-08T11:20:47.858Z,98465.00
2022-12-08T11:23:24.362Z,98487.63
2022-12-08T11:25:53.050Z,98496.72
2022-12-08T11:28:24.444Z,98489.69
2022-12-08T11:31:03.937Z,98496.34
2022-12-08T11:33:30.657Z,98500.66
2022-12-08T11:36:05.691Z,98506.84
2022-12-08T11:38:35.469Z,98514.91
2022-12-08T11:41:15.872Z,98513.19
2022-12-08T11:43:45.987Z,98529.19
2022-12-08T11:46:22.282Z,98510.59
2022-12-08T11:49:05.927Z,98523.13
2022-12-08T11:51:37.901Z,98514.81
2022-12-08T11:54:07.217Z,98514.50
2022-12-08T11:56:37.419Z,98509.59
2022-12-08T11:59:34.362Z,98511.00
2022-12-08T12:02:03.221Z,98508.44
2022-12-08T12:05:11.144Z,98495.22
2022-12-08T12:07:59.191Z,98498.34
2022-12-08T12:10:44.347Z,98488.69
2022-12-08T12:13:29.044Z,98484.59
2022-12-08T12:16:23.528Z,98480.38
2022-12-08T12:18:55.628Z,98477.69
2022-12-08T12:21:24.698Z,98477.69
2022-12-08T12:24:03.854Z,98458.91
2022-12-08T12:26:36.599Z,98471.88
2022-12-08T12:29:16.220Z,98467.81
2022-12-08T12:31:49.095Z,98470.84
2022-12-08T12:34:21.194Z,98451.94
2022-12-08T12:36:53.319Z,98465.16
2022-12-08T12:39:29.881Z,98458.16
2022-12-08T12:41:59.858Z,98426.41
2022-12-08T12:44:29.649Z,98465.13
2022-12-08T12:46:57.922Z,98466.16
2022-12-08T12:49:40.014Z,98451.22
2022-12-08T12:52:15.520Z,98451.44
2022-12-08T12:55:05.977Z,98445.16
2022-12-08T12:57:50.701Z,98447.34
2022-12-08T13:00:19.892Z,98449.59
2022-12-08T13:02:51.211Z,98461.69
2022-12-08T13:05:30.657Z,98418.47
2022-12-08T13:08:24.294Z,98411.69
2022-12-08T13:11:07.007Z,98420.75
2022-12-08T13:13:33.818Z,98432.78
2022-12-08T13:16:18.433Z,98419.72
2022-12-08T13:18:57.815Z,98404.28
2022-12-08T13:21:33.476Z,98403.28
2022-12-08T13:24:19.867Z,98394.16
2022-12-08T13:26:49.304Z,98390.34
2022-12-08T13:29:26.286Z,98391.16
2022-12-08T13:32:00.340Z,98384.97
2022-12-08T13:34:46.042Z,98370.50
2022-12-08T13:37:13.674Z,98362.69
2022-12-08T13:39:40.485Z,98349.19
2022-12-08T13:42:13.555Z,98350.81
2022-12-08T13:48:25.577Z,98334.81
2022-12-08T13:57:11.447Z,98338.66
2022-12-08T13:59:44.409Z,98330.38
2022-12-08T14:02:33.309Z,98327.00
2022-12-08T14:05:18.630Z,98344.16
2022-12-08T14:07:49.271Z,98351.63
2022-12-08T14:10:29.454Z,98350.81
2022-12-08T14:12:59.402Z,98339.47
2022-12-08T14:15:29.150Z,98343.91
2022-12-08T14:17:58.858Z,98336.59
2022-12-08T14:20:30.935Z,98333.78
2022-12-08T14:23:01.847Z,98326.63
2022-12-08T14:25:29.791Z,98328.63
2022-12-08T14:28:02.350Z,98333.16
2022-12-08T14:30:32.432Z,98328.41
2022-12-08T14:33:02.256Z,98335.16
2022-12-08T14:35:37.455Z,98338.88
2022-12-08T14:38:16.955Z,98329.31
2022-12-08T14:40:46.479Z,98327.22
2022-12-08T14:43:20.932Z,98332.84
2022-12-08T14:45:49.381Z,98331.44
2022-12-08T14:48:42.854Z,98329.66
2022-12-08T14:51:32.336Z,98334.13
2022-12-08T14:54:18.952Z,98328.63
2022-12-08T14:56:51.937Z,98336.56
2022-12-08T14:59:27.207Z,98330.94
2022-12-08T15:02:29.318Z,98337.38
2022-12-08T15:05:10.636Z,98340.06
2022-12-08T15:07:46.160Z,98347.44
2022-12-08T15:10:15.873Z,98339.94
2022-12-08T15:13:03.970Z,98338.66
2022-12-08T15:15:32.817Z,98351.31
2022-12-08T15:18:18.517Z,98347.78
2022-12-08T15:21:01.288Z,98349.41
2022-12-08T15:23:34.297Z,98344.00
2022-12-08T15:26:01.054Z,98362.00
2022-12-08T15:28:30.224Z,98360.38
2022-12-08T15:30:58.517Z,98349.88
2022-12-08T15:33:25.664Z,98356.41
2022-12-08T15:35:53.170Z,98352.31
2022-12-08T15:38:26.773Z,98351.50
2022-12-08T15:40:54.528Z,98348.25
2022-12-08T15:43:22.062Z,98347.41
2022-12-08T15:45:58.421Z,98356.19
2022-12-08T15:48:30.278Z,98353.84
2022-12-08T15:50:57.515Z,98360.59
2022-12-08T15:53:24.317Z,98361.91
2022-12-08T15:56:26.565Z,98353.13
2022-12-08T15:58:53.426Z,98359.59
2022-12-08T16:01:21.355Z,98353.25
2022-12-08T16:09:40.442Z,98364.47
2022-12-08T16:13:13.318Z,98368.22
2022-12-08T16:15:50.010Z,98378.38
2022-12-08T16:18:14.022Z,98373.91
2022-12-08T16:23:42.126Z,98383.75
2022-12-08T16:29:03.142Z,98380.97
2022-12-08T16:31:30.039Z,98379.63
2022-12-08T16:33:56.865Z,98391.94
2022-12-08T16:36:23.580Z,98380.72
2022-12-08T16:38:50.474Z,98382.59
2022-12-08T16:41:36.486Z,98387.97
2022-12-08T16:44:05.442Z,98385.16
2022-12-08T16:46:34.905Z,98369.41
2022-12-08T16:49:01.787Z,98372.53
2022-12-08T16:51:28.588Z,98385.16
2022-12-08T16:53:57.126Z,98390.63
2022-12-08T16:56:29.014Z,98386.91
2022-12-08T16:58:59.264Z,98397.19
2022-12-08T17:01:26.142Z,98403.13
2022-12-08T17:04:22.492Z,98404.75
2022-12-08T17:06:40.350Z,98409.81
2022-12-08T17:09:07.304Z,98412.84
2022-12-08T17:11:37.644Z,98420.78
2022-12-08T17:14:06.070Z,98423.13
2022-12-08T17:16:32.880Z,98423.81
2022-12-08T17:18:59.792Z,98413.50
2022-12-08T17:21:26.493Z,98417.97
2022-12-08T17:23:53.177Z,98416.06
2022-12-08T17:26:20.192Z,98417.34
2022-12-08T17:29:02.264Z,98422.47
2022-12-08T17:31:31.482Z,98421.06
2022-12-08T17:34:00.468Z,98417.16
2022-12-08T17:36:27.408Z,98420.06
2022-12-08T17:38:55.091Z,98417.47
2022-12-08T17:41:21.863Z,98422.25
2022-12-08T17:43:48.576Z,98414.06
2022-12-08T17:46:20.173Z,98410.78
2022-12-08T17:48:47.352Z,98411.34
2022-12-08T17:51:14.362Z,98408.66
2022-12-08T17:53:41.578Z,98405.06
2022-12-08T17:56:15.734Z,98398.16
2022-12-08T17:58:42.641Z,98414.41
2022-12-08T18:01:11.102Z,98411.72
2022-12-08T18:03:38.943Z,98420.63
2022-12-08T18:06:07.720Z,98421.38
2022-12-08T18:08:35.258Z,98414.59
2022-12-08T18:11:02.501Z,98420.94
2022-12-08T18:13:29.439Z,98429.59
2022-12-08T18:15:56.128Z,98425.13
2022-12-08T18:18:22.851Z,98424.94
2022-12-08T18:20:50.663Z,98425.38
2022-12-08T18:23:18.200Z,98427.03
2022-12-08T18:25:45.131Z,98434.75
2022-12-08T18:28:11.996Z,98436.50
2022-12-08T18:30:40.516Z,98428.47
2022-12-08T18:33:07.523Z,98433.59
2022-12-08T18:35:34.635Z,98441.97
2022-12-08T18:38:01.370Z,98435.69
2022-12-08T18:40:28.653Z,98440.13
2022-12-08T18:42:55.505Z,98437.19
2022-12-08T18:45:22.853Z,98443.16
2022-12-08T18:47:51.356Z,98433.78
2022-12-08T18:50:18.563Z,98445.13
2022-12-08T18:52:46.630Z,98422.88
2022-12-08T18:55:13.980Z,98447.72
2022-12-08T18:57:43.282Z,98431.69
2022-12-08T19:00:14.257Z,98454.94
2022-12-08T19:02:41.965Z,98447.34
2022-12-08T19:05:10.642Z,98449.22
2022-12-08T19:07:38.161Z,98452.69
2022-12-08T19:10:06.196Z,98449.56
2022-12-08T19:12:33.293Z,98437.75
2022-12-08T19:15:00.087Z,98450.59
2022-12-08T19:17:26.891Z,98457.84
2022-12-08T19:19:53.749Z,98457.84
2022-12-08T19:22:20.622Z,98459.94
2022-12-08T19:24:47.330Z,98465.88
2022-12-08T19:27:14.248Z,98464.31
2022-12-08T19:29:40.958Z,98446.94
2022-12-08T19:32:07.668Z,98477.59
2022-12-08T19:34:34.524Z,98470.28
2022-12-08T19:37:01.224Z,98471.66
2022-12-08T19:39:46.499Z,98479.16
2022-12-08T19:42:37.478Z,98481.47
2022-12-08T19:45:17.502Z,98476.22
2022-12-08T19:47:44.449Z,98483.25
2022-12-08T19:50:31.672Z,98497.66
2022-12-08T19:52:58.932Z,98491.06
2022-12-08T19:55:25.998Z,98503.31
2022-12-08T19:57:53.878Z,98493.72
2022-12-08T20:00:21.610Z,98489.59
2022-12-08T20:02:48.677Z,98483.59
2022-12-08T20:05:15.734Z,98484.75
2022-12-08T20:07:42.892Z,98488.03
2022-12-08T20:10:16.388Z,98489.38
2022-12-08T20:12:43.237Z,98490.28
2022-12-08T20:15:10.457Z,98496.69
2022-12-08T20:17:39.291Z,98492.28
2022-12-08T20:20:07.908Z,98502.91
2022-12-08T20:22:35.181Z,98499.78
2022-12-08T20:25:02.884Z,98491.25
2022-12-08T20:27:29.755Z,98506.19
2022-12-08T20:29:56.646Z,98502.44
2022-12-08T20:32:23.356Z,98477.66
2022-12-08T20:34:50.163Z,98508.03
2022-12-08T20:37:16.988Z,98508.53
2022-12-08T20:39:44.024Z,98517.22
2022-12-08T20:42:13.963Z,98512.59
2022-12-08T20:44:44.651Z,98513.44
2022-12-08T20:47:12.924Z,98516.69
2022-12-08T20:49:39.753Z,98520.53
2022-12-08T20:52:07.375Z,98521.13
2022-12-08T20:54:35.266Z,98515.75
2022-12-08T20:57:02.392Z,98521.06
2022-12-08T20:59:29.559Z,98523.78
2022-12-08T21:01:56.456Z,98519.50
2022-12-08T21:04:24.123Z,98524.53
2022-12-08T21:06:51.221Z,98530.94
2022-12-08T21:09:18.696Z,98522.56
2022-12-08T21:11:46.020Z,98510.19
2022-12-08T21:14:13.163Z,98516.97
2022-12-08T21:16:40.154Z,98526.25
2022-12-08T21:19:07.253Z,98521.97
2022-12-08T21:21:34.277Z,98519.03
2022-12-08T21:24:01.460Z,98533.06
2022-12-08T21:26:28.866Z,98523.38
2022-12-08T21:28:59.058Z,98527.16
2022-12-08T21:31:27.260Z,98517.78
2022-12-08T21:33:55.318Z,98532.75
2022-12-08T21:36:22.535Z,98533.75
2022-12-08T21:38:49.532Z,98519.16
2022-12-08T21:41:42.573Z,98523.47
2022-12-08T21:44:12.703Z,98514.16
2022-12-08T21:46:41.057Z,98515.66
2022-12-08T21:49:08.697Z,98524.31
2022-12-08T21:51:37.953Z,98532.56
2022-12-08T21:54:05.100Z,98524.03
2022-12-08T21:56:32.319Z,98519.13
2022-12-08T21:58:59.278Z,98530.44
2022-12-08T22:01:26.155Z,98529.63
2022-12-08T22:03:53.300Z,98527.06
2022-12-08T22:06:20.373Z,98524.03
2022-12-08T22:08:47.301Z,98525.44
2022-12-08T22:11:14.300Z,98527.19
2022-12-08T22:13:42.434Z,98519.34
2022-12-08T22:16:11.574Z,98527.38
2022-12-08T22:18:38.903Z,98521.31
2022-12-08T22:21:11.650Z,98520.16
2022-12-08T22:23:38.811Z,98524.44
2022-12-08T22:26:06.675Z,98526.25
2022-12-08T22:28:36.170Z,98530.53
2022-12-08T22:31:14.820Z,98527.91
2022-12-08T22:33:43.492Z,98514.78
2022-12-08T22:36:24.705Z,98526.09
2022-12-08T22:38:52.860Z,98536.63
2022-12-08T22:41:20.635Z,98537.06
2022-12-08T22:43:48.316Z,98534.78
2022-12-08T22:46:24.429Z,98531.84
2022-12-08T22:48:52.766Z,98531.16
2022-12-08T22:51:19.995Z,98529.50
2022-12-08T22:53:47.411Z,98529.19
2022-12-08T22:56:15.746Z,98539.88
2022-12-08T22:58:44.501Z,98546.91
2022-12-08T23:01:26.244Z,98546.41
2022-12-08T23:03:53.516Z,98541.94
2022-12-08T23:06:20.520Z,98539.47
2022-12-08T23:08:47.609Z,98523.09
2022-12-08T23:11:14.916Z,98536.34
2022-12-08T23:13:41.737Z,98543.22
2022-12-08T23:16:10.378Z,98536.50
2022-12-08T23:18:39.989Z,98533.56
2022-12-08T23:21:09.268Z,98536.00
2022-12-08T23:23:36.700Z,98543.72
2022-12-08T23:26:03.649Z,98537.16
2022-12-08T23:28:30.548Z,98547.00
2022-12-08T23:30:57.382Z,98551.75
2022-12-08T23:33:24.308Z,98539.28
2022-12-08T23:35:58.094Z,98535.66
2022-12-08T23:38:25.540Z,98543.72
2022-12-08T23:40:52.761Z,98539.75
2022-12-08T23:43:20.112Z,98528.56
2022-12-08T23:45:48.609Z,98547.28
2022-12-08T23:48:15.654Z,98553.34
2022-12-08T23:50:42.481Z,98526.13
2022-12-08T23:53:09.250Z,98527.56
2022-12-08T23:55:35.960Z,98529.31
2022-12-08T23:58:03.007Z,98524.06
